Time;durP1;ratioP1;P1;durP2;ratioP2;P2;SDS_P1;SDS_P2;PMS_P1;PMS_P2;Temp;Humidity;BMP_temperature;BMP_pressure;BME280_temperature;BME280_humidity;BME280_pressure;Samples;Min_cycle;Max_cycle;Signal;HPM_P1;HPM_P2
2024/01/10 00:00:56;;;;;;;;;;;;;;;;;;5093248;28;19921;-53
2024/01/10 00:03:22;;;;;;;;;;;;;;;;;;5094706;28;19912;-53
2024/01/10 00:05:48;;;;;;;;;;;;;;;;;;5087275;28;19917;-54
2024/01/10 00:08:13;;;;;;;;;;;;;;;;;;5089959;28;20596;-53
2024/01/10 00:10:39;;;;;;;;;;;;;;;;;;5094111;28;19959;-54
2024/01/10 00:13:05;;;;;;;;;;;;;;;;;;5093406;28;19920;-54
2024/01/10 00:15:31;;;;;;;;;;;;;;;;;;5089657;28;20010;-57
2024/01/10 00:17:57;;;;;;;;;;;;;;;;;;5092742;28;19919;-59
2024/01/10 00:20:23;;;;;;;;;;;;;;;;;;5083572;28;19950;-58
2024/01/10 00:22:49;;;;;;;;;;;;;;;;;;5091077;28;19912;-58
2024/01/10 00:25:15;;;;;;;;;;;;;;;;;;5091366;28;20011;-58
2024/01/10 00:27:41;;;;;;;;;;;;;;;;;;5086066;28;19922;-57
2024/01/10 00:30:07;;;;;;;;;;;;;;;;;;5090613;28;20371;-58
2024/01/10 00:32:33;;;;;;;;;;;;;;;;;;5084082;28;19919;-58
2024/01/10 00:34:58;;;;;;;;;;;;;;;;;;5091855;28;19916;-58
2024/01/10 00:37:24;;;;;;;;;;;;;;;;;;5092031;28;19952;-58
2024/01/10 00:39:50;;;;;;;;;;;;;;;;;;5092813;28;20279;-59
2024/01/10 00:42:16;;;;;;;;;;;;;;;;;;5092128;28;19965;-58
2024/01/10 00:44:42;;;;;;;;;;;;;;;;;;5093233;28;19916;-58
2024/01/10 00:47:08;;;;;;;;;;;;;;;;;;5091426;28;19912;-59
2024/01/10 00:49:34;;;;;;;;;;;;;;;;;;5093190;28;20406;-59
2024/01/10 00:52:00;;;;;;;;;;;;;;;;;;5093495;28;20006;-59
2024/01/10 00:54:26;;;;;;;;;;;;;;;;;;5094200;28;20077;-58
2024/01/10 00:56:52;;;;;;;;;;;;;;;;;;5093085;28;19963;-59
2024/01/10 00:59:18;;;;;;;;;;;;;;;;;;5093490;28;20290;-59
2024/01/10 01:01:44;;;;;;;;;;;;;;;;;;5093577;28;19916;-59
2024/01/10 01:04:10;;;;;;;;;;;;;;;;;;5091068;28;19992;-58
2024/01/10 01:06:35;;;;;;;;;;;;;;;;;;5092542;28;20008;-58
2024/01/10 01:09:02;;;;;;;;;;;;;;;;;;5093391;28;19964;-58
2024/01/10 01:11:28;;;;;;;;;;;;;;;;;;5092992;28;19916;-58
2024/01/10 01:13:53;;;;;;;;;;;;;;;;;;5093438;28;19920;-59
2024/01/10 01:16:19;;;;;;;;;;;;;;;;;;5092349;28;19993;-59
2024/01/10 01:18:45;;;;;;;;;;;;;;;;;;5093025;28;20050;-58
2024/01/10 01:21:11;;;;;;;;;;;;;;;;;;5090989;28;20294;-57
2024/01/10 01:23:37;;;;;;;;;;;;;;;;;;5084623;28;20025;-53
2024/01/10 01:26:03;;;;;;;;;;;;;;;;;;5084305;28;19916;-52
2024/01/10 01:28:29;;;;;;;;;;;;;;;;;;5085159;28;20015;-54
2024/01/10 01:30:55;;;;;;;;;;;;;;;;;;5090425;28;20015;-53
2024/01/10 01:33:21;;;;;;;;;;;;;;;;;;5092445;28;19998;-53
2024/01/10 01:35:47;;;;;;;;;;;;;;;;;;5090319;28;19938;-53
2024/01/10 01:38:13;;;;;;;;;;;;;;;;;;5081784;28;19944;-54
2024/01/10 01:40:39;;;;;;;;;;;;;;;;;;5091826;28;20010;-53
2024/01/10 01:43:05;;;;;;;;;;;;;;;;;;5082840;28;19963;-53
2024/01/10 01:45:31;;;;;;;;;;;;;;;;;;5088919;28;19978;-54
2024/01/10 01:47:57;;;;;;;;;;;;;;;;;;5085284;28;19912;-55
2024/01/10 01:50:22;;;;;;;;;;;;;;;;;;5089314;28;19912;-53
2024/01/10 01:52:48;;;;;;;;;;;;;;;;;;5089676;28;19936;-53
2024/01/10 01:55:14;;;;;;;;;;;;;;;;;;5091575;28;20372;-54
2024/01/10 01:57:40;;;;;;;;;;;;;;;;;;5092631;28;20003;-51
2024/01/10 02:00:06;;;;;;;;;;;;;;;;;;5092327;28;20002;-53
2024/01/10 02:02:32;;;;;;;;;;;;;;;;;;5092219;28;20003;-56
2024/01/10 02:04:58;;;;;;;;;;;;;;;;;;5085434;28;19916;-55
2024/01/10 02:07:24;;;;;;;;;;;;;;;;;;5091947;28;19919;-54
2024/01/10 02:09:50;;;;;;;;;;;;;;;;;;5090254;28;19990;-56
2024/01/10 02:12:16;;;;;;;;;;;;;;;;;;5084253;28;19951;-55
2024/01/10 02:14:42;;;;;;;;;;;;;;;;;;5092633;28;19912;-53
2024/01/10 02:17:08;;;;;;;;;;;;;;;;;;5092755;28;19909;-54
2024/01/10 02:19:34;;;;;;;;;;;;;;;;;;5090809;28;19916;-55
2024/01/10 02:22:00;;;;;;;;;;;;;;;;;;5078967;28;20311;-53
2024/01/10 02:24:26;;;;;;;;;;;;;;;;;;5084516;28;19918;-53
2024/01/10 02:26:52;;;;;;;;;;;;;;;;;;5092167;28;20016;-52
2024/01/10 02:29:18;;;;;;;;;;;;;;;;;;5090059;28;19993;-56
2024/01/10 02:31:44;;;;;;;;;;;;;;;;;;5091725;28;19919;-55
2024/01/10 02:34:10;;;;;;;;;;;;;;;;;;5092457;28;20280;-54
2024/01/10 02:36:36;;;;;;;;;;;;;;;;;;5092293;28;19951;-56
2024/01/10 02:39:02;;;;;;;;;;;;;;;;;;5088416;28;19912;-53
2024/01/10 02:41:27;;;;;;;;;;;;;;;;;;5091381;28;19918;-53
2024/01/10 02:43:53;;;;;;;;;;;;;;;;;;5090880;28;20003;-54
2024/01/10 02:46:22;;;;;;;;;;;;;;;;;;5088289;28;20292;-53
2024/01/10 02:48:48;;;;;;;;;;;;;;;;;;5091438;28;20364;-54
2024/01/10 02:51:14;;;;;;;;;;;;;;;;;;5091867;28;19919;-54
2024/01/10 02:53:40;;;;;;;;;;;;;;;;;;5091870;28;19956;-54
2024/01/10 02:56:06;;;;;;;;;;;;;;;;;;5087446;28;20319;-54
2024/01/10 02:58:32;;;;;;;;;;;;;;;;;;5091857;28;19916;-53
2024/01/10 03:00:58;;;;;;;;;;;;;;;;;;5091490;28;20376;-54
2024/01/10 03:03:24;;;;;;;;;;;;;;;;;;5091293;28;19935;-55
2024/01/10 03:05:50;;;;;;;;;;;;;;;;;;5095265;28;19920;-54
2024/01/10 03:08:16;;;;;;;;;;;;;;;;;;5094375;28;20375;-53
2024/01/10 03:10:42;;;;;;;;;;;;;;;;;;5095424;28;20004;-52
2024/01/10 03:13:08;;;;;;;;;;;;;;;;;;5094306;28;20433;-54
2024/01/10 03:15:34;;;;;;;;;;;;;;;;;;5094783;28;20014;-55
2024/01/10 03:18:00;;;;;;;;;;;;;;;;;;5095238;28;19958;-53
2024/01/10 03:20:26;;;;;;;;;;;;;;;;;;5092062;28;19916;-54
2024/01/10 03:22:52;;;;;;;;;;;;;;;;;;5095561;28;19961;-53
2024/01/10 03:25:18;;;;;;;;;;;;;;;;;;5095000;28;19962;-54
2024/01/10 03:27:43;;;;;;;;;;;;;;;;;;5094906;28;19912;-54
2024/01/10 03:30:09;;;;;;;;;;;;;;;;;;5093619;28;20251;-54
2024/01/10 03:32:35;;;;;;;;;;;;;;;;;;5095438;28;19912;-53
2024/01/10 03:35:01;;;;;;;;;;;;;;;;;;5095553;28;19957;-55
2024/01/10 03:37:27;;;;;;;;;;;;;;;;;;5091319;28;20344;-54
2024/01/10 03:39:53;;;;;;;;;;;;;;;;;;5094985;28;19912;-53
2024/01/10 03:42:19;;;;;;;;;;;;;;;;;;5095168;28;20261;-53
2024/01/10 03:44:45;;;;;;;;;;;;;;;;;;5088770;28;19916;-58
2024/01/10 03:47:11;;;;;;;;;;;;;;;;;;5090361;28;19927;-58
2024/01/10 03:49:37;;;;;;;;;;;;;;;;;;5095159;28;19912;-58
2024/01/10 03:52:03;;;;;;;;;;;;;;;;;;5095144;28;19912;-58
2024/01/10 03:54:29;;;;;;;;;;;;;;;;;;5094511;28;19953;-58
2024/01/10 03:56:55;;;;;;;;;;;;;;;;;;5094818;28;19990;-58
2024/01/10 03:59:20;;;;;;;;;;;;;;;;;;5093091;28;19927;-58
2024/01/10 04:01:46;;;;;;;;;;;;;;;;;;5094835;28;19920;-58
2024/01/10 04:04:12;;;;;;;;;;;;;;;;;;5095153;28;20002;-58
2024/01/10 04:06:38;;;;;;;;;;;;;;;;;;5087517;28;19917;-57
2024/01/10 04:09:08;;;;;;;;;;;;;;;;;;5080355;28;19971;-58
2024/01/10 04:11:34;;;;;;;;;;;;;;;;;;5094185;28;19908;-58
2024/01/10 04:14:00;;;;;;;;;;;;;;;;;;5094769;28;20311;-58
2024/01/10 04:16:27;;;;;;;;;;;;;;;;;;5094232;28;19951;-58
2024/01/10 04:18:53;;;;;;;;;;;;;;;;;;5086010;28;19949;-58
2024/01/10 04:21:19;;;;;;;;;;;;;;;;;;5074497;28;20376;-58
2024/01/10 04:23:45;;;;;;;;;;;;;;;;;;5074501;28;19954;-58
2024/01/10 04:26:11;;;;;;;;;;;;;;;;;;5086015;28;19951;-57
2024/01/10 04:28:39;;;;;;;;;;;;;;;;;;5088929;28;20408;-58
2024/01/10 04:31:05;;;;;;;;;;;;;;;;;;5084509;28;19908;-58
2024/01/10 04:33:31;;;;;;;;;;;;;;;;;;5088076;28;20383;-58
2024/01/10 04:35:57;;;;;;;;;;;;;;;;;;5094376;28;19951;-58
2024/01/10 04:38:26;;;;;;;;;;;;;;;;;;5093900;28;20364;-58
2024/01/10 04:40:52;;;;;;;;;;;;;;;;;;5092630;28;19912;-57
2024/01/10 04:43:18;;;;;;;;;;;;;;;;;;5093400;28;19922;-57
2024/01/10 04:45:44;;;;;;;;;;;;;;;;;;5094329;28;19921;-57
2024/01/10 04:48:09;;;;;;;;;;;;;;;;;;5093592;28;19914;-58
2024/01/10 04:50:35;;;;;;;;;;;;;;;;;;5094037;28;20399;-58
2024/01/10 04:53:01;;;;;;;;;;;;;;;;;;5094029;28;19908;-56
2024/01/10 04:55:27;;;;;;;;;;;;;;;;;;5094338;28;19944;-53
2024/01/10 04:57:53;;;;;;;;;;;;;;;;;;5092758;28;20426;-53
2024/01/10 05:00:19;;;;;;;;;;;;;;;;;;5074480;28;20036;-51
2024/01/10 05:02:45;;;;;;;;;;;;;;;;;;5087383;28;20319;-54
2024/01/10 05:05:11;;;;;;;;;;;;;;;;;;5093078;28;19958;-53
2024/01/10 05:07:37;;;;;;;;;;;;;;;;;;5093500;28;19908;-53
2024/01/10 05:10:03;;;;;;;;;;;;;;;;;;5085068;28;19995;-53
2024/01/10 05:12:29;;;;;;;;;;;;;;;;;;5081372;28;19924;-52
2024/01/10 05:14:55;;;;;;;;;;;;;;;;;;5086782;28;19947;-53
2024/01/10 05:17:21;;;;;;;;;;;;;;;;;;5092624;28;20386;-54
2024/01/10 05:19:47;;;;;;;;;;;;;;;;;;5092600;28;19916;-51
2024/01/10 05:22:13;;;;;;;;;;;;;;;;;;5085873;28;20003;-54
2024/01/10 05:24:39;;;;;;;;;;;;;;;;;;5090495;28;20336;-54
2024/01/10 05:27:04;;;;;;;;;;;;;;;;;;5092149;28;19920;-52
2024/01/10 05:29:30;;;;;;;;;;;;;;;;;;5089425;28;20421;-52
2024/01/10 05:31:56;;;;;;;;;;;;;;;;;;5086269;28;19913;-55
2024/01/10 05:34:22;;;;;;;;;;;;;;;;;;5090305;28;19955;-54
2024/01/10 05:36:49;;;;;;;;;;;;;;;;;;5087938;28;19958;-55
2024/01/10 05:39:15;;;;;;;;;;;;;;;;;;5089377;28;19912;-53
2024/01/10 05:41:43;;;;;;;;;;;;;;;;;;5091601;28;19923;-54
2024/01/10 05:44:09;;;;;;;;;;;;;;;;;;5093036;28;19930;-53
2024/01/10 05:46:35;;;;;;;;;;;;;;;;;;5091616;28;19956;-54
2024/01/10 05:49:01;;;;;;;;;;;;;;;;;;5091444;28;20290;-53
2024/01/10 05:51:27;;;;;;;;;;;;;;;;;;5088621;28;19920;-53
2024/01/10 05:53:52;;;;;;;;;;;;;;;;;;5085383;28;19939;-54
2024/01/10 05:56:18;;;;;;;;;;;;;;;;;;5089053;28;19945;-54
2024/01/10 05:58:44;;;;;;;;;;;;;;;;;;5088617;28;19920;-53
2024/01/10 06:01:10;;;;;;;;;;;;;;;;;;5088839;28;19955;-53
2024/01/10 06:03:36;;;;;;;;;;;;;;;;;;5085779;28;19919;-58
2024/01/10 06:06:03;;;;;;;;;;;;;;;;;;5091095;28;19916;-58
2024/01/10 06:08:29;;;;;;;;;;;;;;;;;;5090896;28;19931;-57
2024/01/10 06:10:55;;;;;;;;;;;;;;;;;;5088022;28;19951;-57
2024/01/10 06:13:21;;;;;;;;;;;;;;;;;;5086480;28;19975;-57
2024/01/10 06:15:47;;;;;;;;;;;;;;;;;;5087424;28;19924;-57
2024/01/10 06:18:12;;;;;;;;;;;;;;;;;;5090446;28;19920;-57
2024/01/10 06:20:39;;;;;;;;;;;;;;;;;;5088327;28;20309;-57
2024/01/10 06:23:05;;;;;;;;;;;;;;;;;;5092081;28;19961;-58
2024/01/10 06:25:31;;;;;;;;;;;;;;;;;;5089640;28;19924;-58
2024/01/10 06:27:56;;;;;;;;;;;;;;;;;;5092287;28;19912;-57
2024/01/10 06:30:22;;;;;;;;;;;;;;;;;;5092033;28;19912;-57
2024/01/10 06:32:48;;;;;;;;;;;;;;;;;;5091551;28;19962;-58
2024/01/10 06:35:14;;;;;;;;;;;;;;;;;;5089901;28;19912;-58
2024/01/10 06:37:40;;;;;;;;;;;;;;;;;;5092504;28;19916;-57
2024/01/10 06:40:07;;;;;;;;;;;;;;;;;;5095883;28;20347;-57
2024/01/10 06:42:33;;;;;;;;;;;;;;;;;;5096457;28;20003;-58
2024/01/10 06:44:59;;;;;;;;;;;;;;;;;;5096822;28;20368;-58
2024/01/10 06:47:25;;;;;;;;;;;;;;;;;;5096457;28;19914;-58
2024/01/10 06:49:50;;;;;;;;;;;;;;;;;;5095764;28;19974;-58
2024/01/10 06:52:16;;;;;;;;;;;;;;;;;;5094203;28;19991;-57
2024/01/10 06:54:43;;;;;;;;;;;;;;;;;;5095639;28;19919;-58
2024/01/10 06:57:08;;;;;;;;;;;;;;;;;;5092616;28;19912;-57
2024/01/10 06:59:34;;;;;;;;;;;;;;;;;;5093570;28;19918;-58
2024/01/10 07:02:01;;;;;;;;;;;;;;;;;;5095729;28;19916;-58
2024/01/10 07:04:27;;;;;;;;;;;;;;;;;;5090050;28;20389;-58
2024/01/10 07:06:53;;;;;;;;;;;;;;;;;;5086637;28;19916;-58
2024/01/10 07:09:19;;;;;;;;;;;;;;;;;;5094321;28;19965;-57
2024/01/10 07:11:45;;;;;;;;;;;;;;;;;;5089651;28;20405;-58
2024/01/10 07:14:11;;;;;;;;;;;;;;;;;;5090139;28;19937;-57
2024/01/10 07:16:38;;;;;;;;;;;;;;;;;;5094466;28;20432;-58
2024/01/10 07:19:04;;;;;;;;;;;;;;;;;;5094926;28;19908;-58
2024/01/10 07:21:30;;;;;;;;;;;;;;;;;;5093987;28;20000;-59
2024/01/10 07:23:56;;;;;;;;;;;;;;;;;;5093285;28;20011;-58
2024/01/10 07:26:22;;;;;;;;;;;;;;;;;;5094967;28;20006;-56
2024/01/10 07:28:48;;;;;;;;;;;;;;;;;;5094962;28;19995;-58
2024/01/10 07:31:14;;;;;;;;;;;;;;;;;;5094507;28;20372;-59
2024/01/10 07:33:40;;;;;;;;;;;;;;;;;;5094723;28;19959;-58
2024/01/10 07:36:07;;;;;;;;;;;;;;;;;;5094601;28;19909;-58
2024/01/10 07:38:33;;;;;;;;;;;;;;;;;;5095040;28;20413;-59
2024/01/10 07:40:59;;;;;;;;;;;;;;;;;;5092699;28;19912;-58
2024/01/10 07:43:26;;;;;;;;;;;;;;;;;;5094892;28;19916;-58
2024/01/10 07:45:52;;;;;;;;;;;;;;;;;;5094497;28;19943;-57
2024/01/10 07:48:20;;;;;;;;;;;;;;;;;;5094646;28;20372;-58
2024/01/10 07:50:46;;;;;;;;;;;;;;;;;;5091466;28;19938;-59
2024/01/10 07:53:13;;;;;;;;;;;;;;;;;;5094453;28;19909;-58
2024/01/10 07:55:39;;;;;;;;;;;;;;;;;;5091311;28;19916;-58
2024/01/10 07:58:05;;;;;;;;;;;;;;;;;;5093099;28;19944;-58
2024/01/10 08:00:31;;;;;;;;;;;;;;;;;;5089740;28;19915;-58
2024/01/10 08:02:58;;;;;;;;;;;;;;;;;;5093225;28;20046;-57
2024/01/10 08:05:24;;;;;;;;;;;;;;;;;;5090316;28;19920;-58
2024/01/10 08:07:49;;;;;;;;;;;;;;;;;;5094046;28;19948;-58
2024/01/10 08:10:15;;;;;;;;;;;;;;;;;;5093824;28;20052;-58
2024/01/10 08:12:41;;;;;;;;;;;;;;;;;;5092042;28;19908;-58
2024/01/10 08:15:07;;;;;;;;;;;;;;;;;;5091593;28;19919;-59
2024/01/10 08:17:34;;;;;;;;;;;;;;;;;;5093972;28;20394;-57
2024/01/10 08:20:00;;;;;;;;;;;;;;;;;;5093897;28;19912;-58
2024/01/10 08:22:26;;;;;;;;;;;;;;;;;;5093913;28;19908;-57
2024/01/10 08:24:52;;;;;;;;;;;;;;;;;;5093380;28;19919;-60
2024/01/10 08:27:18;;;;;;;;;;;;;;;;;;5093687;28;20376;-59
2024/01/10 08:29:44;;;;;;;;;;;;;;;;;;5091459;28;19916;-57
2024/01/10 08:32:10;;;;;;;;;;;;;;;;;;5093770;28;19916;-58
2024/01/10 08:34:36;;;;;;;;;;;;;;;;;;5093502;28;19951;-58
2024/01/10 08:37:02;;;;;;;;;;;;;;;;;;5093743;28;20696;-58
2024/01/10 08:39:30;;;;;;;;;;;;;;;;;;5093296;28;19912;-58
2024/01/10 08:41:56;;;;;;;;;;;;;;;;;;5093337;28;19908;-58
2024/01/10 08:44:22;;;;;;;;;;;;;;;;;;5093585;28;20057;-58
2024/01/10 08:46:50;;;;;;;;;;;;;;;;;;5091228;28;20372;-58
2024/01/10 08:49:16;;;;;;;;;;;;;;;;;;5084467;28;20390;-58
2024/01/10 08:51:43;;;;;;;;;;;;;;;;;;5093420;28;19908;-58
2024/01/10 08:54:09;;;;;;;;;;;;;;;;;;5093322;28;19991;-58
2024/01/10 08:56:35;;;;;;;;;;;;;;;;;;5090843;28;20348;-58
2024/01/10 08:59:01;;;;;;;;;;;;;;;;;;5093402;28;20329;-58
2024/01/10 09:01:27;;;;;;;;;;;;;;;;;;5092531;28;19908;-58
2024/01/10 09:03:53;;;;;;;;;;;;;;;;;;5082418;28;19958;-58
2024/01/10 09:06:20;;;;;;;;;;;;;;;;;;5093134;28;20014;-58
2024/01/10 09:08:46;;;;;;;;;;;;;;;;;;5093191;28;19915;-58
2024/01/10 09:11:12;;;;;;;;;;;;;;;;;;5092404;28;19908;-58
2024/01/10 09:13:40;;;;;;;;;;;;;;;;;;5091344;28;19991;-58
2024/01/10 09:16:06;;;;;;;;;;;;;;;;;;5092531;28;19992;-58
2024/01/10 09:18:32;;;;;;;;;;;;;;;;;;5093045;28;20257;-58
2024/01/10 09:20:57;;;;;;;;;;;;;;;;;;5076848;28;20433;-58
2024/01/10 09:23:23;;;;;;;;;;;;;;;;;;5092720;28;20097;-58
2024/01/10 09:25:49;;;;;;;;;;;;;;;;;;5092340;28;19912;-58
2024/01/10 09:28:15;;;;;;;;;;;;;;;;;;5092692;28;20382;-58
2024/01/10 09:30:41;;;;;;;;;;;;;;;;;;5091800;28;20382;-57
2024/01/10 09:33:07;;;;;;;;;;;;;;;;;;5088282;28;19974;-58
2024/01/10 09:35:33;;;;;;;;;;;;;;;;;;5084352;28;20003;-52
2024/01/10 09:38:00;;;;;;;;;;;;;;;;;;5091585;28;19965;-54
2024/01/10 09:40:28;;;;;;;;;;;;;;;;;;5092249;28;19908;-50
2024/01/10 09:42:57;;;;;;;;;;;;;;;;;;5092455;28;20715;-56
2024/01/10 09:45:23;;;;;;;;;;;;;;;;;;5092068;28;19964;-54
2024/01/10 09:47:49;;;;;;;;;;;;;;;;;;5092512;28;19908;-53
2024/01/10 09:50:15;;;;;;;;;;;;;;;;;;5090076;28;19912;-54
2024/01/10 09:52:41;;;;;;;;;;;;;;;;;;5092206;28;19909;-53
2024/01/10 09:55:07;;;;;;;;;;;;;;;;;;5092253;28;19914;-53
2024/01/10 09:57:36;;;;;;;;;;;;;;;;;;5083196;28;20006;-53
2024/01/10 10:00:04;;;;;;;;;;;;;;;;;;5085037;28;19961;-55
2024/01/10 10:02:30;;;;;;;;;;;;;;;;;;5087223;28;19912;-54
2024/01/10 10:04:56;;;;;;;;;;;;;;;;;;5085169;28;19908;-54
2024/01/10 10:07:22;;;;;;;;;;;;;;;;;;5091113;28;20007;-53
2024/01/10 10:09:48;;;;;;;;;;;;;;;;;;5091279;28;20006;-53
2024/01/10 10:12:14;;;;;;;;;;;;;;;;;;5089295;28;19908;-55
2024/01/10 10:14:39;;;;;;;;;;;;;;;;;;5090178;28;19958;-53
2024/01/10 10:17:06;;;;;;;;;;;;;;;;;;5090101;28;19916;-54
2024/01/10 10:19:31;;;;;;;;;;;;;;;;;;5091426;28;20344;-54
2024/01/10 10:21:57;;;;;;;;;;;;;;;;;;5091740;28;19995;-53
2024/01/10 10:24:23;;;;;;;;;;;;;;;;;;5091468;28;19965;-53
2024/01/10 10:26:49;;;;;;;;;;;;;;;;;;5085971;28;20357;-52
2024/01/10 10:29:15;;;;;;;;;;;;;;;;;;5085990;28;19959;-55
2024/01/10 10:31:41;;;;;;;;;;;;;;;;;;5091546;28;19916;-53
2024/01/10 10:34:07;;;;;;;;;;;;;;;;;;5090029;28;20398;-53
2024/01/10 10:36:33;;;;;;;;;;;;;;;;;;5090464;28;19951;-55
2024/01/10 10:38:59;;;;;;;;;;;;;;;;;;5087644;28;19919;-53
2024/01/10 10:41:24;;;;;;;;;;;;;;;;;;5090756;28;20375;-52
2024/01/10 10:43:50;;;;;;;;;;;;;;;;;;5090716;28;19915;-51
2024/01/10 10:46:16;;;;;;;;;;;;;;;;;;5090564;28;20381;-52
2024/01/10 10:48:42;;;;;;;;;;;;;;;;;;5089045;28;19948;-53
2024/01/10 10:51:08;;;;;;;;;;;;;;;;;;5091190;28;19908;-53
2024/01/10 10:53:35;;;;;;;;;;;;;;;;;;5091473;28;19915;-55
2024/01/10 10:56:01;;;;;;;;;;;;;;;;;;5091177;28;19912;-53
2024/01/10 10:58:27;;;;;;;;;;;;;;;;;;5080846;28;20452;-53
2024/01/10 11:00:53;;;;;;;;;;;;;;;;;;5090755;28;20003;-53
2024/01/10 11:03:26;;;;;;;;;;;;;;;;;;5079503;28;19978;-58
2024/01/10 11:05:52;;;;;;;;;;;;;;;;;;5082714;28;19992;-57
2024/01/10 11:08:18;;;;;;;;;;;;;;;;;;5091166;28;20000;-56
2024/01/10 11:10:44;;;;;;;;;;;;;;;;;;5090805;28;19916;-57
2024/01/10 11:13:10;;;;;;;;;;;;;;;;;;5088041;28;19969;-57
2024/01/10 11:15:36;;;;;;;;;;;;;;;;;;5089021;28;19955;-57
2024/01/10 11:18:02;;;;;;;;;;;;;;;;;;5090981;28;19958;-56
2024/01/10 11:20:28;;;;;;;;;;;;;;;;;;5090939;28;19987;-57
2024/01/10 11:22:54;;;;;;;;;;;;;;;;;;5090969;28;20321;-57
2024/01/10 11:25:20;;;;;;;;;;;;;;;;;;5092490;28;19969;-57
2024/01/10 11:27:47;;;;;;;;;;;;;;;;;;5086411;28;19920;-57
2024/01/10 11:30:13;;;;;;;;;;;;;;;;;;5092879;28;19955;-56
2024/01/10 11:32:39;;;;;;;;;;;;;;;;;;5087132;28;20004;-56
2024/01/10 11:35:07;;;;;;;;;;;;;;;;;;5082110;28;20438;-57
2024/01/10 11:37:33;;;;;;;;;;;;;;;;;;5094615;28;20350;-57
2024/01/10 11:40:00;;;;;;;;;;;;;;;;;;5094203;28;19959;-57
2024/01/10 11:42:26;;;;;;;;;;;;;;;;;;5094566;28;19912;-57
2024/01/10 11:44:52;;;;;;;;;;;;;;;;;;5094852;28;19908;-57
2024/01/10 11:47:18;;;;;;;;;;;;;;;;;;5094719;28;19948;-57
2024/01/10 11:49:44;;;;;;;;;;;;;;;;;;5091083;28;19963;-57
2024/01/10 11:52:10;;;;;;;;;;;;;;;;;;5083797;28;20002;-55
2024/01/10 11:54:36;;;;;;;;;;;;;;;;;;5094308;28;19953;-58
2024/01/10 11:57:02;;;;;;;;;;;;;;;;;;5094634;28;20016;-58
2024/01/10 11:59:28;;;;;;;;;;;;;;;;;;5083230;28;19934;-57
2024/01/10 12:01:54;;;;;;;;;;;;;;;;;;5090817;28;19958;-58
2024/01/10 12:04:21;;;;;;;;;;;;;;;;;;5083768;28;19994;-55
2024/01/10 12:06:47;;;;;;;;;;;;;;;;;;5089821;28;19920;-56
2024/01/10 12:09:13;;;;;;;;;;;;;;;;;;5094051;28;19935;-57
2024/01/10 12:11:39;;;;;;;;;;;;;;;;;;5092182;28;19991;-57
2024/01/10 12:14:05;;;;;;;;;;;;;;;;;;5094293;28;20409;-57
2024/01/10 12:16:31;;;;;;;;;;;;;;;;;;5083743;28;19916;-56
2024/01/10 12:18:57;;;;;;;;;;;;;;;;;;5094063;28;20034;-57
2024/01/10 12:21:22;;;;;;;;;;;;;;;;;;5090815;28;19919;-56
2024/01/10 12:23:48;;;;;;;;;;;;;;;;;;5093678;28;19918;-56
2024/01/10 12:26:14;;;;;;;;;;;;;;;;;;5093746;28;20296;-57
2024/01/10 12:28:42;;;;;;;;;;;;;;;;;;5093561;28;19920;-56
2024/01/10 12:31:08;;;;;;;;;;;;;;;;;;5093610;28;19994;-55
2024/01/10 12:33:34;;;;;;;;;;;;;;;;;;5091575;28;20763;-54
2024/01/10 12:36:00;;;;;;;;;;;;;;;;;;5087854;28;19908;-57
2024/01/10 12:38:26;;;;;;;;;;;;;;;;;;5093436;28;19998;-55
2024/01/10 12:40:51;;;;;;;;;;;;;;;;;;5092931;28;20401;-55
2024/01/10 12:43:17;;;;;;;;;;;;;;;;;;5093668;28;19912;-57
2024/01/10 12:45:45;;;;;;;;;;;;;;;;;;5093439;28;20445;-56
2024/01/10 12:48:11;;;;;;;;;;;;;;;;;;5093585;28;20021;-56
2024/01/10 12:50:38;;;;;;;;;;;;;;;;;;5090923;28;20017;-56
2024/01/10 12:53:03;;;;;;;;;;;;;;;;;;5093512;28;20049;-56
2024/01/10 12:55:29;;;;;;;;;;;;;;;;;;5087519;28;19991;-56
2024/01/10 12:57:59;;;;;;;;;;;;;;;;;;5092539;28;20405;-56
2024/01/10 13:00:25;;;;;;;;;;;;;;;;;;5087188;28;19955;-55
2024/01/10 13:02:51;;;;;;;;;;;;;;;;;;5083114;28;19916;-56
2024/01/10 13:05:17;;;;;;;;;;;;;;;;;;5089787;28;19947;-55
2024/01/10 13:07:43;;;;;;;;;;;;;;;;;;5092444;28;19912;-56
2024/01/10 13:10:09;;;;;;;;;;;;;;;;;;5090635;28;19919;-55
2024/01/10 13:12:35;;;;;;;;;;;;;;;;;;5085383;28;20372;-57
2024/01/10 13:15:01;;;;;;;;;;;;;;;;;;5092163;28;20030;-56
2024/01/10 13:17:26;;;;;;;;;;;;;;;;;;5080366;28;20391;-56
2024/01/10 13:19:53;;;;;;;;;;;;;;;;;;5089482;28;19923;-56
2024/01/10 13:22:19;;;;;;;;;;;;;;;;;;5091830;28;20382;-56
2024/01/10 13:24:45;;;;;;;;;;;;;;;;;;5092754;28;19912;-53
2024/01/10 13:27:11;;;;;;;;;;;;;;;;;;5092717;28;19912;-51
2024/01/10 13:29:38;;;;;;;;;;;;;;;;;;5085356;28;19984;-52
2024/01/10 13:32:04;;;;;;;;;;;;;;;;;;5093050;28;19908;-52
2024/01/10 13:34:30;;;;;;;;;;;;;;;;;;5091884;28;19952;-54
2024/01/10 13:36:56;;;;;;;;;;;;;;;;;;5092302;28;19943;-54
2024/01/10 13:39:22;;;;;;;;;;;;;;;;;;5091898;28;20379;-53
2024/01/10 13:41:48;;;;;;;;;;;;;;;;;;5092708;28;19915;-53
2024/01/10 13:44:14;;;;;;;;;;;;;;;;;;5084021;28;19943;-53
2024/01/10 13:46:41;;;;;;;;;;;;;;;;;;5091697;28;19924;-54
2024/01/10 13:49:07;;;;;;;;;;;;;;;;;;5083134;28;19927;-52
2024/01/10 13:51:33;;;;;;;;;;;;;;;;;;5087406;28;19916;-52
2024/01/10 13:53:58;;;;;;;;;;;;;;;;;;5089528;28;19962;-53
2024/01/10 13:56:24;;;;;;;;;;;;;;;;;;5091490;28;19912;-52
2024/01/10 13:58:50;;;;;;;;;;;;;;;;;;5087259;28;20024;-51
2024/01/10 14:01:16;;;;;;;;;;;;;;;;;;5085162;28;19959;-51
2024/01/10 14:03:42;;;;;;;;;;;;;;;;;;5083618;28;20372;-52
2024/01/10 14:06:08;;;;;;;;;;;;;;;;;;5089425;28;20406;-50
2024/01/10 14:08:34;;;;;;;;;;;;;;;;;;5089276;28;19912;-53
2024/01/10 14:11:00;;;;;;;;;;;;;;;;;;5087754;28;19916;-53
2024/01/10 14:13:26;;;;;;;;;;;;;;;;;;5088381;28;20021;-54
2024/01/10 14:15:52;;;;;;;;;;;;;;;;;;5076259;28;19952;-55
2024/01/10 14:18:18;;;;;;;;;;;;;;;;;;5084835;28;19912;-54
2024/01/10 14:20:44;;;;;;;;;;;;;;;;;;5088758;28;19962;-54
2024/01/10 14:23:10;;;;;;;;;;;;;;;;;;5090140;28;19969;-53
2024/01/10 14:25:36;;;;;;;;;;;;;;;;;;5091391;28;19955;-54
2024/01/10 14:28:03;;;;;;;;;;;;;;;;;;5091053;28;19916;-52
2024/01/10 14:30:29;;;;;;;;;;;;;;;;;;5090902;28;19919;-53
2024/01/10 14:32:55;;;;;;;;;;;;;;;;;;5087897;28;19912;-54
2024/01/10 14:35:21;;;;;;;;;;;;;;;;;;5088124;28;20394;-58
2024/01/10 14:37:47;;;;;;;;;;;;;;;;;;5088932;28;19912;-57
2024/01/10 14:40:13;;;;;;;;;;;;;;;;;;5087709;28;19912;-57
2024/01/10 14:42:39;;;;;;;;;;;;;;;;;;5088790;28;19938;-57
2024/01/10 14:45:05;;;;;;;;;;;;;;;;;;5091487;28;19912;-57
2024/01/10 14:47:31;;;;;;;;;;;;;;;;;;5081136;28;20238;-57
2024/01/10 14:49:59;;;;;;;;;;;;;;;;;;5081254;28;20014;-57
2024/01/10 14:52:25;;;;;;;;;;;;;;;;;;5087240;28;19913;-58
2024/01/10 14:54:52;;;;;;;;;;;;;;;;;;5082468;28;19966;-57
2024/01/10 14:57:17;;;;;;;;;;;;;;;;;;5090314;28;19975;-58
2024/01/10 14:59:43;;;;;;;;;;;;;;;;;;5090149;28;20018;-57
2024/01/10 15:02:09;;;;;;;;;;;;;;;;;;5092215;28;19918;-57
2024/01/10 15:04:35;;;;;;;;;;;;;;;;;;5094592;28;19963;-57
2024/01/10 15:07:01;;;;;;;;;;;;;;;;;;5089858;28;20314;-57
2024/01/10 15:09:27;;;;;;;;;;;;;;;;;;5089005;28;19926;-58
2024/01/10 15:11:54;;;;;;;;;;;;;;;;;;5090184;28;20004;-57
2024/01/10 15:14:22;;;;;;;;;;;;;;;;;;5091608;28;19912;-57
2024/01/10 15:16:48;;;;;;;;;;;;;;;;;;5093733;28;19912;-57
2024/01/10 15:19:14;;;;;;;;;;;;;;;;;;5093691;28;19927;-57
2024/01/10 15:21:40;;;;;;;;;;;;;;;;;;5085211;28;19952;-57
2024/01/10 15:24:06;;;;;;;;;;;;;;;;;;5088976;28;19955;-57
2024/01/10 15:26:32;;;;;;;;;;;;;;;;;;5082613;28;20330;-57
2024/01/10 15:28:58;;;;;;;;;;;;;;;;;;5092248;28;19924;-57
2024/01/10 15:31:25;;;;;;;;;;;;;;;;;;5091539;28;20271;-56
2024/01/10 15:33:51;;;;;;;;;;;;;;;;;;5093130;28;19916;-57
2024/01/10 15:36:17;;;;;;;;;;;;;;;;;;5086779;28;19912;-57
2024/01/10 15:38:42;;;;;;;;;;;;;;;;;;5088811;28;19962;-58
2024/01/10 15:41:13;;;;;;;;;;;;;;;;;;5091557;28;22641;-57
2024/01/10 15:43:39;;;;;;;;;;;;;;;;;;5092471;28;19912;-57
2024/01/10 15:46:05;;;;;;;;;;;;;;;;;;5087815;28;20380;-57
2024/01/10 15:48:31;;;;;;;;;;;;;;;;;;5093064;28;19920;-57
2024/01/10 15:50:57;;;;;;;;;;;;;;;;;;5084395;28;20315;-57
2024/01/10 15:53:23;;;;;;;;;;;;;;;;;;5090716;28;20452;-56
2024/01/10 15:55:50;;;;;;;;;;;;;;;;;;5092926;28;20007;-57
2024/01/10 15:58:16;;;;;;;;;;;;;;;;;;5086732;28;19959;-56
2024/01/10 16:00:42;;;;;;;;;;;;;;;;;;5091923;28;19923;-56
2024/01/10 16:03:08;;;;;;;;;;;;;;;;;;5088940;28;19939;-57
2024/01/10 16:05:34;;;;;;;;;;;;;;;;;;5093456;28;19908;-56
2024/01/10 16:08:00;;;;;;;;;;;;;;;;;;5091544;28;19912;-56
2024/01/10 16:10:26;;;;;;;;;;;;;;;;;;5091478;28;20340;-57
2024/01/10 16:12:53;;;;;;;;;;;;;;;;;;5089398;28;20395;-57
2024/01/10 16:15:19;;;;;;;;;;;;;;;;;;5075656;28;20000;-56
2024/01/10 16:17:45;;;;;;;;;;;;;;;;;;5080808;28;20007;-57
2024/01/10 16:20:11;;;;;;;;;;;;;;;;;;5091539;28;19918;-57
2024/01/10 16:22:36;;;;;;;;;;;;;;;;;;5092420;28;19940;-57
2024/01/10 16:25:03;;;;;;;;;;;;;;;;;;5091203;28;19947;-56
2024/01/10 16:27:29;;;;;;;;;;;;;;;;;;5094623;28;20333;-57
2024/01/10 16:29:54;;;;;;;;;;;;;;;;;;5091226;28;20010;-56
2024/01/10 16:32:20;;;;;;;;;;;;;;;;;;5087904;28;19919;-57
2024/01/10 16:34:47;;;;;;;;;;;;;;;;;;5088355;28;19912;-57
2024/01/10 16:37:13;;;;;;;;;;;;;;;;;;5082584;28;19923;-56